• Join FlightAware (Why Join?)
  • Login
  • US Flag 
05:21AM EDT


 

Airport Tracker/Info


-or-


 

Live Flight TrackerFlight Track Log ✈ JBU1201 ✈ 27-Sep-2013 ✈ KJFK - KFLL

Flight Track Log - Related Links

Times and Time Zones

All times are in EDT time to prevent confusion due to time zone crossing. See the JBU1201 flight status page for this flight to view local times or setup timezone preferences in your user account.

Time Position Orientation Groundspeed Altitude Reporting Facility
EDT Latitude Longitude Course Direction KTS MPH feet Rate Location/Type
10:12PM 40.6333 -73.8500 221° Southwest 195 224 2,500  Level New York TRACON
10:13PM 40.5467 -73.8436 177° South 253 291 6,700 2,820 Climbing New York Center
10:14PM 40.1899 -74.0157 220° Southwest  Level Estimated
10:14PM 40.5239 -73.7553 109° East 253 291 9,900  Level New York Center
10:15PM 40.0932 -73.9201 143° Southeast  Level FlightAware Approximate
10:15PM 40.4725 -73.6492 122° Southeast 289 333 11,700  Level New York Center
10:16PM 40.0173 -73.8454 143° Southeast  Level FlightAware Approximate
10:16PM 40.3992 -73.5753 142° Southeast 348 400 14,200  Level New York Center
10:17PM 39.9295 -73.8929 221° Southwest  Level Estimated
10:17PM 40.3078 -73.4736 140° Southeast 385 443 17,300  Level New York Center
10:18PM 40.2264 -73.3889 142° Southeast 390 449 19,200 1,860 Climbing New York Center
10:19PM 40.1164 -73.3711 173° South 381 438 21,100 1,140 Climbing New York Center
10:22PM 39.8944 -73.5714 215° Southwest 405 466 23,000 540 Climbing Washington Center
10:23PM 39.7978 -73.6606 215° Southwest 427 491 23,000 600 Level Washington Center
10:24PM 39.6994 -73.7522 216° Southwest 441 507 24,300 1,320 Climbing Washington Center
10:25PM 39.5944 -73.8464 215° Southwest 446 513 25,700 1,500 Climbing Washington Center
10:26PM 39.4917 -73.9458 217° Southwest 456 525 27,300 1,440 Climbing Washington Center
10:27PM 39.3867 -74.0450 216° Southwest 466 536 28,600 1,200 Climbing Washington Center
10:28PM 39.2839 -74.1569 220° Southwest 480 552 29,800 660 Climbing Washington Center
10:29PM 39.1811 -74.2717 221° Southwest 496 571 30,000 600 Climbing Washington Center
10:30PM 39.0736 -74.3725 216° Southwest 491 565 31,100 1,320 Climbing Washington Center
10:31PM 38.9619 -74.4597 211° Southwest 491 565 32,700 1,500 Climbing Washington Center
10:32PM 38.8461 -74.5494 211° Southwest 486 559 34,200 1,320 Climbing Washington Center
10:33PM 38.7364 -74.6389 212° Southwest 479 551 35,400 900 Climbing Washington Center
10:34PM 38.6244 -74.7281 212° Southwest 479 551 36,000 240 Climbing Washington Center
10:35PM 38.5144 -74.8142 211° Southwest 472 543 35,900  Descending Washington Center
10:36PM 38.4047 -74.8975 211° Southwest 472 543 36,000  Climbing Washington Center
10:37PM 38.2967 -74.9911 214° Southwest 472 543 35,900  Descending Washington Center
10:38PM 38.1825 -75.0767 211° Southwest 472 543 36,000  Climbing Washington Center
10:39PM 38.0744 -75.1644 213° Southwest 477 549 36,000  Level Washington Center
10:40PM 37.9619 -75.2467 210° Southwest 477 549 36,000  Level Washington Center
10:41PM 37.8475 -75.3314 210° Southwest 477 549 36,000  Level Washington Center
10:42PM 37.7372 -75.4186 212° Southwest 477 549 36,000  Level Washington Center
10:43PM 37.6267 -75.5028 211° Southwest 477 549 36,000  Level Washington Center
10:44PM 37.5161 -75.5867 211° Southwest 477 549 36,000  Level Washington Center
10:45PM 37.4056 -75.6728 212° Southwest 477 549 36,000  Level Washington Center
10:46PM 37.2950 -75.7564 211° Southwest 477 549 36,000  Level Washington Center
10:47PM 37.1822 -75.8422 211° Southwest 477 549 36,000  Level Washington Center
10:48PM 37.0694 -75.9250 210° Southwest 477 549 36,000  Level Washington Center
10:49PM 36.9503 -76.0053 208° Southwest 477 549 36,000  Level Washington Center
10:50PM 36.8350 -76.0903 211° Southwest 496 571 36,000  Level Washington Center
10:51PM 36.7306 -76.1697 211° Southwest 490 564 36,000  Level Washington Center
10:52PM 36.6153 -76.2594 212° Southwest 490 564 36,000 -60 Level Washington Center
10:53PM 36.5000 -76.3439 210° Southwest 490 564 35,900  Descending Washington Center
10:54PM 36.3806 -76.4306 210° Southwest 495 570 36,000  Climbing Washington Center
10:55PM 36.2608 -76.5167 210° Southwest 495 570 36,000  Level Washington Center
10:56PM 36.1433 -76.6056 211° Southwest 495 570 36,000  Level Washington Center
10:57PM 36.0194 -76.6936 210° Southwest 495 570 36,000  Level Washington Center
10:58PM 35.8978 -76.7817 210° Southwest 501 577 36,000  Level Washington Center
10:59PM 35.7778 -76.8644 209° Southwest 501 577 36,000 -60 Level Washington Center
11:00PM 35.6539 -76.9544 211° Southwest 506 582 35,900  Descending Washington Center
11:01PM 35.5358 -77.0419 211° Southwest 506 582 36,000  Climbing Washington Center
11:02PM 35.4017 -77.1056 201° Southwest 511 588 36,000  Level Washington Center
11:03PM 35.2631 -77.1617 198° South 523 602 36,000  Level Washington Center
11:04PM 35.1269 -77.2147 198° South 523 602 36,000  Level Washington Center
11:05PM 34.9906 -77.2678 198° South 518 596 36,000  Level Washington Center
11:06PM 34.8561 -77.3233 199° South 523 602 36,000  Level Washington Center
11:07PM 34.7072 -77.3833 198° South 518 596 36,000  Level Washington Center
11:08PM 34.5728 -77.4358 198° South 518 596 36,000  Level Washington Center
11:09PM 34.4383 -77.4908 199° South 518 596 36,000  Level Washington Center
11:10PM 34.3042 -77.5431 198° South 518 596 36,000  Level Washington Center
11:12PM 34.0114 -77.6544 198° South 496 571 36,000  Level Jacksonville Center
11:13PM 33.8758 -77.7075 198° South 501 577 36,000  Level Jacksonville Center
11:14PM 33.7425 -77.7603 198° South 511 588 36,000  Level Jacksonville Center
11:15PM 33.6089 -77.8128 198° South 511 588 36,000  Level Jacksonville Center
11:16PM 33.4775 -77.8628 198° South 511 588 36,000  Level Jacksonville Center
11:17PM 33.3439 -77.9125 197° South 511 588 36,000  Level Jacksonville Center
11:18PM 33.2164 -77.9644 199° South 506 582 36,000 -60 Level Jacksonville Center
11:19PM 33.0847 -78.0114 197° South 496 571 35,900  Descending Jacksonville Center
11:20PM 32.9572 -78.0603 198° South 496 571 36,000  Climbing Jacksonville Center
11:21PM 32.8275 -78.1069 197° South 496 571 35,900  Descending Jacksonville Center
11:22PM 32.6981 -78.1581 198° South 496 571 36,000  Climbing Jacksonville Center
11:23PM 32.5683 -78.2069 198° South 496 571 36,000  Level Jacksonville Center
11:24PM 32.4406 -78.2553 198° South 496 571 36,000  Level Jacksonville Center
11:25PM 32.2986 -78.3092 198° South 496 571 36,000  Level Jacksonville Center
11:26PM 32.1689 -78.3597 198° South 496 571 36,000  Level Jacksonville Center
11:27PM 32.0369 -78.4081 197° South 491 565 36,000  Level Jacksonville Center
11:28PM 31.9114 -78.4558 198° South 491 565 36,000 -60 Level Jacksonville Center
11:29PM 31.7836 -78.5033 198° South 491 565 35,900  Descending Jacksonville Center
11:30PM 31.6558 -78.5483 197° South 485 558 36,000  Climbing Jacksonville Center
11:31PM 31.5281 -78.5958 198° South 490 564 36,000  Level Jacksonville Center
11:32PM 31.4022 -78.6406 197° South 471 542 36,000  Level Jacksonville Center
11:33PM 31.2806 -78.6850 197° South 480 552 36,000 -60 Level Jacksonville Center
11:34PM 31.1547 -78.7319 198° South 464 534 35,900 -60 Descending Jacksonville Center
11:35PM 31.0289 -78.7786 198° South 476 548 35,900  Level Jacksonville Center
11:36PM 30.9153 -78.8200 197° South 476 548 35,900  Level Jacksonville Center
11:37PM 30.7914 -78.8639 197° South 476 548 36,000  Climbing Jacksonville Center
11:38PM 30.6175 -78.9231 196° South 497 572 36,000  Level Miami Center
11:39PM 30.4817 -78.9492 189° South 492 566 36,000  Level Miami Center
11:40PM 30.3522 -78.9731 189° South 487 560 36,000  Level Miami Center
11:41PM 30.2183 -79.0017 190° South 487 560 36,000 -60 Level Miami Center
11:42PM 30.0825 -79.0278 189° South 487 560 35,900  Descending Miami Center
11:43PM 29.9569 -79.0611 193° South 487 560 36,000  Climbing Miami Center
11:44PM 29.8231 -79.0847 189° South 487 560 36,000  Level Miami Center
11:45PM 29.6872 -79.1081 188° South 487 560 36,000  Level Miami Center
11:46PM 29.5533 -79.1364 190° South 486 559 36,000  Level Miami Center
11:47PM 29.4236 -79.1622 190° South 491 565 36,000  Level Miami Center
11:48PM 29.2939 -79.1858 189° South 491 565 36,000  Level Miami Center
11:49PM 29.1578 -79.2089 188° South 485 558 36,000  Level Miami Center
11:50PM 29.0281 -79.2347 190° South 485 558 36,000  Level Miami Center
11:51PM 28.8961 -79.2603 190° South 480 552 36,000  Level Miami Center
11:52PM 28.7622 -79.2836 189° South 485 558 36,000  Level Miami Center
11:53PM 28.6303 -79.3067 189° South 485 558 36,000  Level Miami Center
11:54PM 28.5047 -79.3322 190° South 485 558 36,000  Level Miami Center
11:55PM 28.3728 -79.3625 191° South 485 558 36,000  Level Miami Center
11:56PM 28.2428 -79.3947 192° South 485 558 36,000  Level Miami Center
11:57PM 28.1169 -79.4272 193° South 485 558 36,000 -420 Level Miami Center
11:58PM 27.9847 -79.4597 192° South 485 558 35,200 -1,380 Descending Miami Center
11:59PM 27.8547 -79.4894 191° South 470 541 33,200 -1,980 Descending Miami Center
12:00AM 27.7353 -79.5197 193° South 440 506 31,300 -2,040 Descending Miami Center
12:01AM 27.6306 -79.5453 192° South 430 495 29,300 -2,100 Descending Miami Center
12:02AM 27.5150 -79.5731 192° South 430 495 27,200 -2,340 Descending Miami Center
12:03AM 27.3914 -79.6006 191° South 425 489 24,700 -2,160 Descending Miami Center
12:04AM 27.2928 -79.6264 193° South 412 474 22,900 -2,160 Descending Miami Center
12:05AM 27.1711 -79.6561 192° South 412 474 20,400 -2,160 Descending Miami Center
12:06AM 27.0744 -79.6794 192° South 406 467 18,600 -2,220 Descending Miami Center
12:07AM 26.9569 -79.7069 192° South 395 455 16,100 -2,280 Descending Miami Center
12:08AM 26.8564 -79.7322 193° South 386 444 14,100 -2,100 Descending Miami Center
12:09AM 26.7556 -79.7556 192° South 378 435 12,000 -1,560 Descending Miami Center
12:10AM 26.6717 -79.7744 191° South 359 413 11,100 -960 Descending Miami Center
12:10AM 26.6381 -79.7850 196° South 312 359 10,800 -1,500 Descending Miami Center
12:11AM 26.5772 -79.7997 192° South 308 354 9,700 -1,620 Descending Miami Center
12:11AM 26.5772 -79.7953 90° East 330 380 9,600 -1,380 Descending Miami Center
12:12AM 26.4975 -79.8186 195° South 299 344 8,300 -1,260 Descending Miami Center
12:12AM 26.5036 -79.8142 33° Northeast 309 356 8,300 -300 Level Miami Center
12:13AM 26.4175 -79.8422 196° South 294 338 8,000 -180 Descending Miami Center
12:14AM 26.3394 -79.8797 203° Southwest 298 343 8,000  Level Miami Center
12:14AM 26.3481 -79.8731 35° Northeast 298 343 8,000 -480 Level Miami Center
12:15AM 26.2861 -79.9408 224° Southwest 298 343 7,500 -660 Descending Miami Center
12:16AM 26.2200 -79.9994 219° Southwest 288 331 6,800 -720 Descending Miami Center
12:16AM 26.2242 -79.9972 26° Northeast 293 337 6,800 -1,020 Level Miami Center
12:17AM 26.1808 -80.0747 238° Southwest 287 330 5,800 -1,440 Descending Miami Center
12:18AM 26.1622 -80.1531 255° West 277 319 4,000 -1,740 Descending Miami Center
12:18AM 26.1581 -80.1575 224° Southwest 275 316 4,000 -1,800 Level Miami Center
12:19AM 26.1458 -80.2289 259° West 270 311 2,200 -1,800 Descending Miami Center
12:19AM 26.1417 -80.2333 224° Southwest 255 293 2,200 -240 Level Miami Center
12:20AM 26.1172 -80.2997 248° West 208 239 2,000 -180 Descending Miami Center
12:21AM 26.0739 -80.2778 156° South 187 215 1,900 -480 Descending Miami Center
12:22AM 26.0750 -80.2314 88° East 130 150 1,100 -780 Descending Miami Center
12:23AM 26.0736 -80.1897 92° East 131 151 400 -780 Descending Miami Center